Terminal Aerodrome Forecast
Issued by NWS Wakefield, VA

Home | Current Version | Previous Version | Text Only | Print | Product List | Glossary On
Versions: 1 2 3 4 5 6 7 8 9 10 11 12 13 14 15 16 17 18 19 20 21 22 23 24 25
000
FTUS41 KAKQ 241120
TAFECG
TAF
KECG 241120Z 2412/2512 02007KT P6SM OVC005
     FM241500 08007KT P6SM OVC008
     FM241800 09007KT P6SM OVC010
     FM242300 13008KT P6SM -SHRA OVC020
     FM250600 18011KT P6SM -SHRA OVC012=

USA.gov is the U.S. government's official web portal to all federal, state and local government web resources and services.